Earlton, Canada
Current Conditions -  °F | °C
As of 5:00 AM on Monday 22 Dec 2014 (Local Time) from CYXR Reporting Station
Overcast Overcast  
Wind Chill: 14°   Ceiling: 4600
Heat Index: 23°   Visibility: 9mi
Dew Point: 23°   Wind: 8mph
Humidity: 100%   Direction: 120°ESE
Pressure: 30.19"   Gusts: NA
Location:  47.71°N, 79.82°W
Report Text: CYXR 221000Z AUTO 12007KT 9SM OVC046 M05/M05 A3019 RMK SLP242
Loading
Personal Weather Stations






























Interactive Weather Map New forecast layout! Learn more

10-Day Weather Forecast

Advertisements
Track Severe Weather on mobile